Time;durP1;ratioP1;P1;durP2;ratioP2;P2;SDS_P1;SDS_P2;PMS_P1;PMS_P2;Temp;Humidity;BMP_temperature;BMP_pressure;BME280_temperature;BME280_humidity;BME280_pressure;Samples;Min_cycle;Max_cycle;Signal;HPM_P1;HPM_P2
2022/03/31 00:00:18;;;;;;;;;42.50;38.25;;;;;-142.59;100.00;56100.38;5096680;27;50176;-75
2022/03/31 00:02:43;;;;;;;;;44.00;38.50;;;;;-142.59;100.00;56100.38;5112787;27;49710;-75
2022/03/31 00:05:09;;;;;;;;;38.50;36.25;;;;;-142.59;100.00;56100.38;5096805;27;49829;-71
2022/03/31 00:07:34;;;;;;;;;41.75;37.00;;;;;-142.59;100.00;56100.38;5096128;27;49783;-74
2022/03/31 00:10:00;;;;;;;;;41.00;36.00;;;;;-142.59;100.00;56100.38;5092486;27;49911;-70
2022/03/31 00:12:25;;;;;;;;;48.25;38.00;;;;;-142.59;100.00;56100.38;5091370;27;49730;-75
2022/03/31 00:14:51;;;;;;;;;42.50;37.75;;;;;-142.59;100.00;56100.38;5093247;27;49880;-74
2022/03/31 00:17:16;;;;;;;;;45.75;37.00;;;;;-142.59;100.00;56100.38;5093458;27;49711;-67
2022/03/31 00:19:42;;;;;;;;;41.00;37.50;;;;;-142.59;100.00;56100.38;5093009;27;50449;-65
2022/03/31 00:22:07;;;;;;;;;46.75;37.50;;;;;-142.59;100.00;56100.38;5093241;27;49815;-70
2022/03/31 00:24:33;;;;;;;;;42.75;36.75;;;;;-142.59;100.00;56100.38;5093284;27;50051;-66
2022/03/31 00:26:58;;;;;;;;;40.50;37.00;;;;;-142.59;100.00;56100.38;5091624;27;49874;-76
2022/03/31 00:29:23;;;;;;;;;42.00;37.00;;;;;-142.59;100.00;56100.38;5092569;27;50596;-69
2022/03/31 00:31:49;;;;;;;;;44.50;35.75;;;;;-142.59;100.00;56100.38;5092957;27;49806;-73
2022/03/31 00:34:14;;;;;;;;;45.00;39.75;;;;;-142.59;100.00;56100.38;5093048;27;49708;-75
2022/03/31 00:36:40;;;;;;;;;37.25;32.25;;;;;-142.59;100.00;56100.38;5093147;27;50028;-72
2022/03/31 00:41:49;;;;;;;;;50.75;42.25;;;;;-142.59;100.00;56100.38;5092455;27;49816;-72
2022/03/31 00:44:15;;;;;;;;;46.50;40.25;;;;;-142.59;100.00;56100.38;5091460;27;49796;-71
2022/03/31 00:46:52;;;;;;;;;50.50;42.00;;;;;-142.59;100.00;56100.38;5092584;27;49989;-75
2022/03/31 00:49:21;;;;;;;;;46.25;38.25;;;;;-142.59;100.00;56100.38;5108401;27;51565;-76
2022/03/31 00:51:48;;;;;;;;;39.75;36.00;;;;;-142.59;100.00;56100.38;5092610;27;49863;-71
2022/03/31 00:54:16;;;;;;;;;37.00;35.25;;;;;-142.59;100.00;56100.38;5092979;27;50038;-70
2022/03/31 00:56:41;;;;;;;;;50.00;41.00;;;;;-142.59;100.00;56100.38;5091454;27;49918;-73
2022/03/31 00:59:10;;;;;;;;;52.00;40.75;;;;;-142.59;100.00;56100.38;5090513;27;51995;-76
2022/03/31 01:01:38;;;;;;;;;48.50;41.50;;;;;-142.59;100.00;56100.38;5092474;27;49684;-73
2022/03/31 01:04:05;;;;;;;;;40.25;36.75;;;;;-142.59;100.00;56100.38;5092436;27;49752;-75
2022/03/31 01:06:30;;;;;;;;;48.00;40.75;;;;;-142.59;100.00;56100.38;5092624;27;49707;-74
2022/03/31 01:08:56;;;;;;;;;49.75;42.50;;;;;-142.59;100.00;56100.38;5092148;27;49854;-74
2022/03/31 01:11:22;;;;;;;;;55.00;42.25;;;;;-142.59;100.00;56100.38;5092578;27;49871;-74
2022/03/31 01:13:48;;;;;;;;;52.50;40.50;;;;;-142.59;100.00;56100.38;5092508;27;50018;-73
2022/03/31 01:16:14;;;;;;;;;44.50;38.50;;;;;-142.59;100.00;56100.38;5092644;27;49604;-76
2022/03/31 01:18:39;;;;;;;;;42.75;39.25;;;;;-142.59;100.00;56100.38;5092249;27;50695;-72
2022/03/31 01:21:05;;;;;;;;;49.25;38.25;;;;;-142.59;100.00;56100.38;5091878;27;49714;-70
2022/03/31 01:23:31;;;;;;;;;51.00;39.00;;;;;-142.59;100.00;56100.38;5092542;27;50850;-75
2022/03/31 01:25:57;;;;;;;;;47.75;39.25;;;;;-142.59;100.00;56100.38;5092158;27;49972;-76
2022/03/31 01:28:22;;;;;;;;;43.50;39.00;;;;;-142.59;100.00;56100.38;5092111;27;49693;-76
2022/03/31 01:30:47;;;;;;;;;42.75;37.50;;;;;-142.59;100.00;56100.38;5091849;27;49667;-76
2022/03/31 01:33:14;;;;;;;;;43.75;38.75;;;;;-142.59;100.00;56100.38;5092324;27;49801;-76
2022/03/31 01:35:40;;;;;;;;;55.00;45.75;;;;;-142.59;100.00;56100.38;5092225;27;49780;-76
2022/03/31 01:38:08;;;;;;;;;47.75;40.00;;;;;-142.59;100.00;56100.38;5091788;27;51680;-70
2022/03/31 01:40:35;;;;;;;;;52.75;40.75;;;;;-142.59;100.00;56100.38;5091705;27;49694;-74
2022/03/31 01:43:00;;;;;;;;;41.75;35.50;;;;;-142.59;100.00;56100.38;5091560;27;49678;-75
2022/03/31 01:45:26;;;;;;;;;51.00;41.00;;;;;-142.59;100.00;56100.38;5091860;27;49782;-72
2022/03/31 01:47:52;;;;;;;;;48.75;42.25;;;;;-142.59;100.00;56100.38;5091832;27;50643;-76
2022/03/31 01:50:17;;;;;;;;;53.25;42.00;;;;;-142.59;100.00;56100.38;5090306;27;49918;-77
2022/03/31 01:52:42;;;;;;;;;50.00;41.75;;;;;-142.59;100.00;56100.38;5091600;27;49743;-73
2022/03/31 01:55:09;;;;;;;;;48.25;41.00;;;;;-142.59;100.00;56100.38;5091825;27;49697;-76
2022/03/31 01:57:34;;;;;;;;;56.50;46.50;;;;;-142.59;100.00;56100.38;5091170;27;50452;-76
2022/03/31 02:00:02;;;;;;;;;46.75;41.00;;;;;-142.59;100.00;56100.38;5091495;27;49876;-74
2022/03/31 02:02:30;;;;;;;;;48.75;39.25;;;;;-142.59;100.00;56100.38;5090097;27;50090;-74
2022/03/31 02:04:56;;;;;;;;;53.75;41.75;;;;;-142.59;100.00;56100.38;5091675;27;49881;-73
2022/03/31 02:07:21;;;;;;;;;42.25;39.00;;;;;-142.59;100.00;56100.38;5091361;27;50832;-73
2022/03/31 02:09:46;;;;;;;;;48.25;41.75;;;;;-142.59;100.00;56100.38;5091532;27;49541;-67
2022/03/31 02:12:12;;;;;;;;;52.50;41.25;;;;;-142.59;100.00;56100.38;5091332;27;50064;-75
2022/03/31 02:14:37;;;;;;;;;60.75;45.50;;;;;-142.59;100.00;56100.38;5091590;27;50387;-67
2022/03/31 02:17:10;;;;;;;;;53.75;42.75;;;;;-142.59;100.00;56100.38;5091200;27;50161;-74
2022/03/31 02:19:36;;;;;;;;;61.25;47.00;;;;;-142.59;100.00;56100.38;5091202;27;49921;-76
2022/03/31 02:22:02;;;;;;;;;59.00;46.25;;;;;-142.59;100.00;56100.38;5091463;27;49776;-71
2022/03/31 02:24:28;;;;;;;;;55.75;43.50;;;;;-142.59;100.00;56100.38;5091445;27;50046;-72
2022/03/31 02:26:54;;;;;;;;;49.00;43.00;;;;;-142.59;100.00;56100.38;5090741;27;49746;-73
2022/03/31 02:29:19;;;;;;;;;56.25;47.00;;;;;-142.59;100.00;56100.38;5091088;27;50201;-72
2022/03/31 02:31:48;;;;;;;;;55.75;45.00;;;;;-142.59;100.00;56100.38;5090416;27;50233;-69
2022/03/31 02:34:15;;;;;;;;;56.00;44.25;;;;;-142.59;100.00;56100.38;5091195;27;49592;-72
2022/03/31 02:36:40;;;;;;;;;52.50;42.50;;;;;-142.59;100.00;56100.38;5090730;27;51065;-70
2022/03/31 02:39:07;;;;;;;;;57.50;43.50;;;;;-142.59;100.00;56100.38;5090995;27;49764;-72
2022/03/31 02:41:33;;;;;;;;;59.50;46.75;;;;;-142.59;100.00;56100.38;5090873;27;49867;-72
2022/03/31 02:43:58;;;;;;;;;55.00;44.75;;;;;-142.59;100.00;56100.38;5091231;27;49916;-77
2022/03/31 02:46:28;;;;;;;;;57.75;45.50;;;;;-142.59;100.00;56100.38;5090977;27;49849;-78
2022/03/31 02:48:56;;;;;;;;;52.50;44.25;;;;;-142.59;100.00;56100.38;5091019;27;49759;-76
2022/03/31 02:51:23;;;;;;;;;57.50;46.50;;;;;-142.59;100.00;56100.38;5090916;27;49925;-79
2022/03/31 02:56:34;;;;;;;;;55.50;45.25;;;;;-142.59;100.00;56100.38;5090264;27;50108;-74
2022/03/31 02:58:59;;;;;;;;;55.25;44.00;;;;;-142.59;100.00;56100.38;5090825;27;49615;-74
2022/03/31 03:01:27;;;;;;;;;56.25;44.25;;;;;-142.59;100.00;56100.38;5090731;27;49787;-76
2022/03/31 03:03:56;;;;;;;;;55.25;39.25;;;;;-142.59;100.00;56100.38;5091325;27;49828;-68
2022/03/31 03:06:21;;;;;;;;;56.75;46.25;;;;;-142.59;100.00;56100.38;5090813;27;50511;-68
2022/03/31 03:08:47;;;;;;;;;60.75;48.00;;;;;-142.59;100.00;56100.38;5090707;27;49609;-65
2022/03/31 03:11:12;;;;;;;;;59.75;47.75;;;;;-142.59;100.00;56100.38;5090427;27;49791;-76
2022/03/31 03:13:37;;;;;;;;;60.00;43.00;;;;;-142.59;100.00;56100.38;5090501;27;49528;-76
2022/03/31 03:16:08;;;;;;;;;54.75;45.00;;;;;-142.59;100.00;56100.38;5090307;27;50495;-75
2022/03/31 03:18:37;;;;;;;;;52.25;42.00;;;;;-142.59;100.00;56100.38;5090807;27;49845;-77
2022/03/31 03:21:04;;;;;;;;;55.25;43.50;;;;;-142.59;100.00;56100.38;5090626;27;49744;-77
2022/03/31 03:23:31;;;;;;;;;49.00;42.25;;;;;-142.59;100.00;56100.38;5090769;27;49685;-73
2022/03/31 03:25:56;;;;;;;;;53.50;43.75;;;;;-142.59;100.00;56100.38;5090005;27;49642;-75
2022/03/31 03:28:22;;;;;;;;;45.75;38.50;;;;;-142.59;100.00;56100.38;5090260;27;49650;-67
2022/03/31 03:30:47;;;;;;;;;56.00;46.25;;;;;-142.59;100.00;56100.38;5090228;27;50261;-76
2022/03/31 03:33:12;;;;;;;;;52.75;43.00;;;;;-142.59;100.00;56100.38;5090660;27;49767;-78
2022/03/31 03:35:38;;;;;;;;;59.00;45.75;;;;;-142.59;100.00;56100.38;5090335;27;50598;-76
2022/03/31 03:38:03;;;;;;;;;25.75;24.00;;;;;-142.59;100.00;56100.38;5090278;27;49830;-75
2022/03/31 03:40:31;;;;;;;;;53.75;41.50;;;;;-142.59;100.00;56100.38;5090064;27;50350;-76
2022/03/31 03:42:57;;;;;;;;;56.00;42.25;;;;;-142.59;100.00;56100.38;5090453;27;49883;-73
2022/03/31 03:45:23;;;;;;;;;55.75;44.25;;;;;-142.59;100.00;56100.38;5093656;27;49810;-78
2022/03/31 03:47:49;;;;;;;;;67.00;49.75;;;;;-142.59;100.00;56100.38;5092056;27;49702;-75
2022/03/31 03:50:14;;;;;;;;;60.00;49.00;;;;;-142.59;100.00;56100.38;5093667;27;49898;-74
2022/03/31 03:52:40;;;;;;;;;48.50;38.75;;;;;-142.59;100.00;56100.38;5093673;27;49887;-77
2022/03/31 03:55:07;;;;;;;;;58.00;44.50;;;;;-142.59;100.00;56100.38;5093601;27;49914;-76
2022/03/31 03:57:32;;;;;;;;;58.00;46.00;;;;;-142.59;100.00;56100.38;5093252;27;49784;-81
2022/03/31 03:59:58;;;;;;;;;54.50;44.50;;;;;-142.59;100.00;56100.38;5093955;27;49896;-77
2022/03/31 04:02:23;;;;;;;;;61.00;47.50;;;;;-142.59;100.00;56100.38;5093719;27;49909;-72
2022/03/31 04:04:49;;;;;;;;;56.50;47.25;;;;;-142.59;100.00;56100.38;5095521;27;49746;-66
2022/03/31 04:07:14;;;;;;;;;57.50;44.75;;;;;-142.59;100.00;56100.38;5113857;27;49840;-70
2022/03/31 04:09:39;;;;;;;;;57.50;45.25;;;;;-142.59;100.00;56100.38;5113827;27;49885;-66
2022/03/31 04:12:05;;;;;;;;;53.50;42.75;;;;;-142.59;100.00;56100.38;5105920;27;49696;-67
2022/03/31 04:14:31;;;;;;;;;66.25;50.25;;;;;-142.59;100.00;56100.38;5092771;27;49857;-75
2022/03/31 04:16:56;;;;;;;;;62.50;48.00;;;;;-142.59;100.00;56100.38;5098819;27;49792;-76
2022/03/31 04:19:22;;;;;;;;;57.25;46.00;;;;;-142.59;100.00;56100.38;5097531;27;49703;-72
2022/03/31 04:21:48;;;;;;;;;59.00;46.00;;;;;-142.59;100.00;56100.38;5093244;27;49754;-80
2022/03/31 04:24:13;;;;;;;;;61.00;48.25;;;;;-142.59;100.00;56100.38;5093123;27;49823;-69
2022/03/31 04:26:38;;;;;;;;;59.50;48.25;;;;;-142.59;100.00;56100.38;5093077;27;49766;-75
2022/03/31 04:29:08;;;;;;;;;59.75;48.00;;;;;-142.59;100.00;56100.38;5093047;27;49835;-70
2022/03/31 04:31:37;;;;;;;;;64.75;52.00;;;;;-142.59;100.00;56100.38;5093574;27;49724;-69
2022/03/31 04:34:03;;;;;;;;;63.75;51.50;;;;;-142.59;100.00;56100.38;5093125;27;50530;-68
2022/03/31 04:36:28;;;;;;;;;54.00;44.00;;;;;-142.59;100.00;56100.38;5093284;27;49884;-76
2022/03/31 04:38:53;;;;;;;;;59.75;47.25;;;;;-142.59;100.00;56100.38;5093006;27;49725;-70
2022/03/31 04:41:19;;;;;;;;;64.75;51.50;;;;;-142.59;100.00;56100.38;5093053;27;49876;-72
2022/03/31 04:43:44;;;;;;;;;62.50;50.00;;;;;-142.59;100.00;56100.38;5092695;27;49932;-74
2022/03/31 04:46:09;;;;;;;;;58.25;46.00;;;;;-142.59;100.00;56100.38;5092992;27;49667;-68
2022/03/31 04:48:35;;;;;;;;;61.00;47.75;;;;;-142.59;100.00;56100.38;5093035;27;50242;-77
2022/03/31 04:51:01;;;;;;;;;59.00;48.50;;;;;-142.59;100.00;56100.38;5093269;27;49980;-78
2022/03/31 04:53:26;;;;;;;;;58.25;48.50;;;;;-142.59;100.00;56100.38;5092483;27;50363;-69
2022/03/31 04:55:52;;;;;;;;;69.00;54.25;;;;;-142.59;100.00;56100.38;5092149;27;49579;-73
2022/03/31 04:58:18;;;;;;;;;54.75;44.25;;;;;-142.59;100.00;56100.38;5092811;27;49904;-69
2022/03/31 05:00:43;;;;;;;;;67.75;52.50;;;;;-142.59;100.00;56100.38;5092761;27;49853;-75
2022/03/31 05:03:09;;;;;;;;;58.00;45.75;;;;;-142.59;100.00;56100.38;5092408;27;50425;-72
2022/03/31 05:05:34;;;;;;;;;64.50;52.50;;;;;-142.59;100.00;56100.38;5092630;27;49659;-75
2022/03/31 05:07:59;;;;;;;;;63.00;51.25;;;;;-142.59;100.00;56100.38;5092924;27;49652;-67
2022/03/31 05:10:25;;;;;;;;;66.00;53.67;;;;;-142.59;100.00;56100.38;5093464;27;50012;-69
2022/03/31 05:12:50;;;;;;;;;63.25;49.25;;;;;-142.59;100.00;56100.38;5092200;27;50532;-70
2022/03/31 05:15:16;;;;;;;;;70.75;54.50;;;;;-142.59;100.00;56100.38;5092626;27;49699;-80
2022/03/31 05:17:41;;;;;;;;;63.00;50.50;;;;;-142.59;100.00;56100.38;5092553;27;49681;-68
2022/03/31 05:20:12;;;;;;;;;57.00;48.25;;;;;-142.59;100.00;56100.38;5101061;27;49777;-68
2022/03/31 05:22:38;;;;;;;;;63.25;50.00;;;;;-142.59;100.00;56100.38;5102963;27;50482;-68
2022/03/31 05:25:07;;;;;;;;;69.25;53.75;;;;;-142.59;100.00;56100.38;5099204;27;49685;-76
2022/03/31 05:27:33;;;;;;;;;69.67;54.67;;;;;-142.59;100.00;56100.38;5102272;27;51096;-74
2022/03/31 05:29:58;;;;;;;;;73.67;55.33;;;;;-142.59;100.00;56100.38;5103231;27;49409;-74
2022/03/31 05:32:24;;;;;;;;;66.33;53.33;;;;;-142.59;100.00;56100.38;5110731;27;59632;-68
2022/03/31 05:34:50;;;;;;;;;70.00;54.33;;;;;-142.59;100.00;56100.38;5109586;27;49795;-67
2022/03/31 05:37:15;;;;;;;;;72.67;57.33;;;;;-142.59;100.00;56100.38;5100392;27;49813;-69
2022/03/31 05:39:41;;;;;;;;;65.00;54.00;;;;;-142.59;100.00;56100.38;5092378;27;49777;-70
2022/03/31 05:42:07;;;;;;;;;73.33;58.00;;;;;-142.59;100.00;56100.38;5097414;27;49786;-78
2022/03/31 05:44:32;;;;;;;;;79.33;62.00;;;;;-142.59;100.00;56100.38;5091349;27;49844;-74
2022/03/31 05:46:58;;;;;;;;;76.00;55.33;;;;;-142.59;100.00;56100.38;5092154;27;50400;-68
2022/03/31 05:49:23;;;;;;;;;70.33;57.00;;;;;-142.59;100.00;56100.38;5100426;27;49959;-79
2022/03/31 05:51:49;;;;;;;;;81.33;61.00;;;;;-142.59;100.00;56100.38;5104742;27;49650;-77
2022/03/31 05:54:14;;;;;;;;;70.67;55.00;;;;;-142.59;100.00;56100.38;5097530;27;50156;-80
2022/03/31 05:56:39;;;;;;;;;72.33;56.33;;;;;-142.59;100.00;56100.38;5091805;27;49775;-79
2022/03/31 05:59:05;;;;;;;;;75.33;59.00;;;;;-142.59;100.00;56100.38;5091978;27;49951;-74
2022/03/31 06:01:30;;;;;;;;;78.00;62.33;;;;;-142.59;100.00;56100.38;5091533;27;50928;-68
2022/03/31 06:03:56;;;;;;;;;76.67;60.00;;;;;-142.59;100.00;56100.38;5091941;27;49768;-68
2022/03/31 06:06:23;;;;;;;;;76.33;58.00;;;;;-142.59;100.00;56100.38;5090735;27;49812;-68
2022/03/31 06:08:49;;;;;;;;;74.00;57.00;;;;;-142.59;100.00;56100.38;5090328;27;49805;-73
2022/03/31 06:11:14;;;;;;;;;72.00;56.67;;;;;-142.59;100.00;56100.38;5091446;27;50371;-71
2022/03/31 06:13:39;;;;;;;;;74.33;55.33;;;;;-142.59;100.00;56100.38;5091187;27;49767;-66
2022/03/31 06:16:05;;;;;;;;;76.00;59.67;;;;;-142.59;100.00;56100.38;5091680;27;49878;-67
2022/03/31 06:18:30;;;;;;;;;72.33;56.67;;;;;-142.59;100.00;56100.38;5092481;27;50027;-68
2022/03/31 06:20:56;;;;;;;;;80.33;60.33;;;;;-142.59;100.00;56100.38;5092822;27;49935;-73
2022/03/31 06:23:23;;;;;;;;;78.33;58.00;;;;;-142.59;100.00;56100.38;5092043;27;49921;-70
2022/03/31 06:25:49;;;;;;;;;72.33;56.00;;;;;-142.59;100.00;56100.38;5092421;27;49771;-73
2022/03/31 06:28:15;;;;;;;;;65.67;53.00;;;;;-142.59;100.00;56100.38;5091184;27;49850;-68
2022/03/31 06:30:41;;;;;;;;;73.67;56.33;;;;;-142.59;100.00;56100.38;5091304;27;50443;-65
2022/03/31 06:33:06;;;;;;;;;70.67;56.00;;;;;-142.59;100.00;56100.38;5091254;27;49699;-70
2022/03/31 06:35:31;;;;;;;;;68.33;54.00;;;;;-142.59;100.00;56100.38;5091137;27;50404;-66
2022/03/31 06:37:57;;;;;;;;;67.25;53.00;;;;;-142.59;100.00;56100.38;5091558;27;49942;-71
2022/03/31 06:40:22;;;;;;;;;64.00;51.00;;;;;-142.59;100.00;56100.38;5091150;27;51024;-65
2022/03/31 06:42:47;;;;;;;;;69.67;55.33;;;;;-142.59;100.00;56100.38;5090969;27;49698;-71
2022/03/31 06:45:16;;;;;;;;;65.00;51.00;;;;;-142.59;100.00;56100.38;5091422;27;49723;-74
2022/03/31 06:47:45;;;;;;;;;70.33;58.00;;;;;-142.59;100.00;56100.38;5100081;27;49916;-69
2022/03/31 06:50:11;;;;;;;;;67.25;53.25;;;;;-142.59;100.00;56100.38;5110474;27;50570;-72
2022/03/31 06:52:36;;;;;;;;;75.75;58.25;;;;;-142.59;100.00;56100.38;5110604;27;49578;-75
2022/03/31 06:55:02;;;;;;;;;64.00;52.75;;;;;-142.59;100.00;56100.38;5110844;27;49568;-74
2022/03/31 06:57:28;;;;;;;;;69.33;55.67;;;;;-142.59;100.00;56100.38;5109603;27;49726;-71
2022/03/31 06:59:53;;;;;;;;;71.67;55.00;;;;;-142.59;100.00;56100.38;5101841;27;50545;-72
2022/03/31 07:02:18;;;;;;;;;69.00;48.75;;;;;-142.59;100.00;56100.38;5090839;27;50079;-75
2022/03/31 07:04:44;;;;;;;;;66.50;52.25;;;;;-142.59;100.00;56100.38;5090904;27;49885;-72
2022/03/31 07:07:09;;;;;;;;;69.25;54.00;;;;;-142.59;100.00;56100.38;5090848;27;49630;-71
2022/03/31 07:09:35;;;;;;;;;67.75;53.00;;;;;-142.59;100.00;56100.38;5090691;27;50608;-71
2022/03/31 07:12:00;;;;;;;;;63.75;51.50;;;;;-142.59;100.00;56100.38;5091016;27;49958;-71
2022/03/31 07:14:25;;;;;;;;;73.50;55.25;;;;;-142.59;100.00;56100.38;5089312;27;49713;-71
2022/03/31 07:16:51;;;;;;;;;68.50;53.00;;;;;-142.59;100.00;56100.38;5091091;27;50033;-75
2022/03/31 07:19:17;;;;;;;;;65.75;51.25;;;;;-142.59;100.00;56100.38;5093961;27;50966;-72
2022/03/31 07:21:43;;;;;;;;;70.00;55.00;;;;;-142.59;100.00;56100.38;5094198;27;49917;-72
2022/03/31 07:24:09;;;;;;;;;71.00;58.25;;;;;-142.59;100.00;56100.38;5094357;27;49848;-75
2022/03/31 07:26:34;;;;;;;;;57.25;49.25;;;;;-142.59;100.00;56100.38;5094414;27;49760;-75
2022/03/31 07:29:00;;;;;;;;;75.75;60.00;;;;;-142.59;100.00;56100.38;5093946;27;49850;-74
2022/03/31 07:31:28;;;;;;;;;65.25;52.00;;;;;-142.59;100.00;56100.38;5094198;27;49705;-71
2022/03/31 07:33:55;;;;;;;;;65.25;52.50;;;;;-142.59;100.00;56100.38;5094350;27;49938;-75
2022/03/31 07:36:20;;;;;;;;;66.75;55.00;;;;;-142.59;100.00;56100.38;5094445;27;49833;-70
2022/03/31 07:38:45;;;;;;;;;68.00;55.00;;;;;-142.59;100.00;56100.38;5093968;27;50424;-73
2022/03/31 07:41:12;;;;;;;;;64.00;50.75;;;;;-142.59;100.00;56100.38;5093896;27;49749;-75
2022/03/31 07:43:38;;;;;;;;;72.00;55.25;;;;;-142.59;100.00;56100.38;5093795;27;49714;-72
2022/03/31 07:46:03;;;;;;;;;65.00;52.00;;;;;-142.59;100.00;56100.38;5094072;27;49915;-73
2022/03/31 07:48:29;;;;;;;;;73.00;56.25;;;;;-142.59;100.00;56100.38;5093812;27;50235;-61
2022/03/31 07:50:56;;;;;;;;;57.50;47.25;;;;;-142.59;100.00;56100.38;5098554;27;49793;-62
2022/03/31 07:53:22;;;;;;;;;56.50;44.75;;;;;-142.59;100.00;56100.38;5093940;27;50100;-75
2022/03/31 07:55:48;;;;;;;;;64.75;52.50;;;;;-142.59;100.00;56100.38;5092659;27;50023;-74
2022/03/31 07:58:14;;;;;;;;;48.00;39.25;;;;;-142.59;100.00;56100.38;5093340;27;50522;-64
2022/03/31 08:00:39;;;;;;;;;36.50;33.75;;;;;-142.59;100.00;56100.38;5093533;27;49873;-64
2022/03/31 08:03:05;;;;;;;;;28.50;28.00;;;;;-142.59;100.00;56100.38;5093519;27;49714;-64
2022/03/31 08:05:30;;;;;;;;;21.75;20.25;;;;;-142.59;100.00;56100.38;5093775;27;49996;-72
2022/03/31 08:07:57;;;;;;;;;19.25;17.25;;;;;-142.59;100.00;56100.38;5100405;27;50429;-64
2022/03/31 08:10:23;;;;;;;;;21.50;20.50;;;;;-142.59;100.00;56100.38;5093695;27;49920;-63
2022/03/31 08:12:49;;;;;;;;;16.25;16.00;;;;;-142.59;100.00;56100.38;5093517;27;49674;-63
2022/03/31 08:15:16;;;;;;;;;15.50;15.25;;;;;-142.59;100.00;56100.38;5093864;27;49889;-65
2022/03/31 08:17:44;;;;;;;;;11.50;10.25;;;;;-142.59;100.00;56100.38;5093418;27;50493;-71
2022/03/31 08:20:12;;;;;;;;;16.25;14.25;;;;;-142.59;100.00;56100.38;5093390;27;50065;-68
2022/03/31 08:22:39;;;;;;;;;11.50;6.50;;;;;-142.59;100.00;56100.38;5099297;27;49604;-66
2022/03/31 08:25:06;;;;;;;;;10.75;10.75;;;;;-142.59;100.00;56100.38;5094048;27;49793;-63
2022/03/31 08:27:32;;;;;;;;;11.25;11.25;;;;;-142.59;100.00;56100.38;5093212;27;50089;-64
2022/03/31 08:29:59;;;;;;;;;9.00;9.00;;;;;-142.59;100.00;56100.38;5092477;27;50210;-63
2022/03/31 08:32:25;;;;;;;;;7.50;7.50;;;;;-142.59;100.00;56100.38;5093524;27;49632;-64
2022/03/31 08:34:50;;;;;;;;;5.00;5.00;;;;;-142.59;100.00;56100.38;5093602;27;49759;-69
2022/03/31 08:37:16;;;;;;;;;9.00;6.50;;;;;-142.59;100.00;56100.38;5093043;27;51512;-63
2022/03/31 08:39:41;;;;;;;;;10.00;7.50;;;;;-142.59;100.00;56100.38;5093203;27;49612;-68
2022/03/31 08:42:07;;;;;;;;;13.25;8.50;;;;;-142.59;100.00;56100.38;5093851;27;49753;-70
2022/03/31 08:44:35;;;;;;;;;12.25;10.25;;;;;-142.59;100.00;56100.38;5093362;27;49965;-64
2022/03/31 08:47:01;;;;;;;;;8.25;6.75;;;;;-142.59;100.00;56100.38;5092886;27;49703;-63
2022/03/31 08:49:28;;;;;;;;;8.00;6.75;;;;;-142.59;100.00;56100.38;5093228;27;49782;-62
2022/03/31 08:51:54;;;;;;;;;7.25;7.25;;;;;-142.59;100.00;56100.38;5095456;27;49931;-63
2022/03/31 08:54:19;;;;;;;;;6.00;6.00;;;;;-142.59;100.00;56100.38;5097142;27;49852;-62
2022/03/31 08:56:45;;;;;;;;;6.75;6.75;;;;;-142.59;100.00;56100.38;5092712;27;50545;-63
2022/03/31 08:59:10;;;;;;;;;10.00;10.00;;;;;-142.59;100.00;56100.38;5092636;27;49765;-63
2022/03/31 09:01:39;;;;;;;;;6.75;5.75;;;;;-142.59;100.00;56100.38;5092827;27;49837;-62
2022/03/31 09:04:05;;;;;;;;;6.25;6.25;;;;;-142.59;100.00;56100.38;5093113;27;49905;-62
2022/03/31 09:06:30;;;;;;;;;9.75;7.75;;;;;-142.59;100.00;56100.38;5092646;27;50448;-61
2022/03/31 09:09:00;;;;;;;;;9.00;7.00;;;;;-142.59;100.00;56100.38;5092986;27;49757;-61
2022/03/31 09:11:33;;;;;;;;;9.50;7.75;;;;;-142.59;100.00;56100.38;5096855;27;49880;-66
2022/03/31 09:14:01;;;;;;;;;7.25;6.00;;;;;-142.59;100.00;56100.38;5094775;27;50058;-66
2022/03/31 09:16:29;;;;;;;;;7.00;6.00;;;;;-142.59;100.00;56100.38;5092341;27;50709;-62
2022/03/31 09:19:00;;;;;;;;;7.75;7.75;;;;;-142.59;100.00;56100.38;5092780;27;49710;-65
2022/03/31 09:21:25;;;;;;;;;7.00;7.00;;;;;-142.59;100.00;56100.38;5092554;27;49813;-66
2022/03/31 09:23:50;;;;;;;;;10.00;6.00;;;;;-142.59;100.00;56100.38;5095175;27;49862;-72
2022/03/31 09:26:17;;;;;;;;;8.25;6.75;;;;;-142.59;100.00;56100.38;5092527;27;49781;-63
2022/03/31 09:28:44;;;;;;;;;6.00;6.00;;;;;-142.59;100.00;56100.38;5092234;27;49814;-65
2022/03/31 09:31:11;;;;;;;;;5.50;5.50;;;;;-142.59;100.00;56100.38;5092450;27;49722;-69
2022/03/31 09:33:38;;;;;;;;;5.75;5.75;;;;;-142.59;100.00;56100.38;5094763;27;49831;-64
2022/03/31 09:36:18;;;;;;;;;7.50;6.00;;;;;-142.59;100.00;56100.38;5092360;27;50716;-68
2022/03/31 09:39:07;;;;;;;;;6.50;6.50;;;;;-142.59;100.00;56100.38;5090950;27;49850;-61
2022/03/31 09:41:34;;;;;;;;;13.25;9.00;;;;;-142.59;100.00;56100.38;5092170;27;49880;-62
2022/03/31 09:44:03;;;;;;;;;9.50;9.50;;;;;-142.59;100.00;56100.38;5092189;27;49711;-60
2022/03/31 09:46:33;;;;;;;;;9.25;7.00;;;;;-142.59;100.00;56100.38;5092178;27;50071;-60
2022/03/31 09:49:09;;;;;;;;;6.00;6.00;;;;;-142.59;100.00;56100.38;5091671;27;49932;-60
2022/03/31 09:51:35;;;;;;;;;6.50;6.00;;;;;-142.59;100.00;56100.38;5091755;27;49719;-68
2022/03/31 09:54:00;;;;;;;;;9.00;7.25;;;;;-142.59;100.00;56100.38;5098600;27;50075;-60
2022/03/31 09:56:25;;;;;;;;;9.50;9.50;;;;;-142.59;100.00;56100.38;5097380;27;50865;-66
2022/03/31 09:58:53;;;;;;;;;4.75;4.75;;;;;-142.59;100.00;56100.38;5091748;27;50165;-67
2022/03/31 10:01:19;;;;;;;;;6.00;6.00;;;;;-142.59;100.00;56100.38;5091821;27;50338;-72
2022/03/31 10:03:45;;;;;;;;;5.00;5.00;;;;;-142.59;100.00;56100.38;5091983;27;49753;-62
2022/03/31 10:06:12;;;;;;;;;8.75;8.75;;;;;-142.59;100.00;56100.38;5094981;27;49891;-69
2022/03/31 10:08:42;;;;;;;;;3.00;3.00;;;;;-142.59;100.00;56100.38;5091800;27;49936;-72
2022/03/31 10:11:09;;;;;;;;;4.50;4.50;;;;;-142.59;100.00;56100.38;5091970;27;50026;-65
2022/03/31 10:14:05;;;;;;;;;7.75;7.75;;;;;-142.59;100.00;56100.38;5093902;27;49976;-69
2022/03/31 10:16:38;;;;;;;;;3.00;2.00;;;;;-142.59;100.00;56100.38;5083652;27;50501;-60
2022/03/31 10:19:03;;;;;;;;;8.75;7.00;;;;;-142.59;100.00;56100.38;5091866;27;49838;-62
2022/03/31 10:21:30;;;;;;;;;6.00;6.00;;;;;-142.59;100.00;56100.38;5091669;27;50222;-65
2022/03/31 10:26:40;;;;;;;;;7.25;6.00;;;;;-142.59;100.00;56100.38;5091464;27;50333;-66
2022/03/31 10:29:14;;;;;;;;;1.50;1.50;;;;;-142.59;100.00;56100.38;5109789;27;49880;-64
2022/03/31 10:31:42;;;;;;;;;6.00;3.50;;;;;-142.59;100.00;56100.38;5111255;27;49841;-78
2022/03/31 10:34:09;;;;;;;;;5.50;3.00;;;;;-142.59;100.00;56100.38;5111517;27;49831;-79
2022/03/31 10:36:36;;;;;;;;;6.00;5.75;;;;;-142.59;100.00;56100.38;5110843;27;50087;-67
2022/03/31 10:39:05;;;;;;;;;4.50;4.50;;;;;-142.59;100.00;56100.38;5092815;27;49839;-64
2022/03/31 10:41:36;;;;;;;;;5.50;5.25;;;;;-142.59;100.00;56100.38;5109701;27;49887;-64
2022/03/31 10:44:10;;;;;;;;;5.25;2.50;;;;;-142.59;100.00;56100.38;5109551;27;49706;-74
2022/03/31 10:46:36;;;;;;;;;5.25;4.00;;;;;-142.59;100.00;56100.38;5110627;27;50913;-76
2022/03/31 10:49:04;;;;;;;;;0.00;0.00;;;;;-142.59;100.00;56100.38;5110869;27;49922;-63
2022/03/31 10:51:49;;;;;;;;;4.50;3.00;;;;;-142.59;100.00;56100.38;5110998;27;50103;-74
2022/03/31 10:54:28;;;;;;;;;6.25;4.00;;;;;-142.59;100.00;56100.38;5110269;27;49596;-67
2022/03/31 10:57:07;;;;;;;;;2.50;2.50;;;;;-142.59;100.00;56100.38;5100968;27;50801;-75
2022/03/31 10:59:34;;;;;;;;;5.50;5.25;;;;;-142.59;100.00;56100.38;5090920;27;49920;-76
2022/03/31 11:02:08;;;;;;;;;5.50;4.25;;;;;-142.59;100.00;56100.38;5090950;27;49928;-79